createdAt,value
2023-01-09T00:00:33.439Z,91.28
2023-01-09T00:02:59.913Z,91.12
2023-01-09T00:05:26.481Z,91.08
2023-01-09T00:07:52.984Z,91.03
2023-01-09T00:10:20.524Z,91.14
2023-01-09T00:12:47.067Z,91.31
2023-01-09T00:15:14.292Z,91.08
2023-01-09T00:17:41.559Z,91.26
2023-01-09T00:20:09.914Z,91.11
2023-01-09T00:22:37.701Z,91.51
2023-01-09T00:25:04.593Z,91.24
2023-01-09T00:27:32.690Z,90.90
2023-01-09T00:29:59.259Z,91.30
2023-01-09T00:32:26.012Z,91.46
2023-01-09T00:34:53.257Z,91.48
2023-01-09T00:37:19.812Z,91.92
2023-01-09T00:39:46.311Z,91.96
2023-01-09T00:42:17.920Z,91.63
2023-01-09T00:44:52.069Z,91.56
2023-01-09T00:47:23.857Z,90.63
2023-01-09T00:49:52.071Z,90.84
2023-01-09T00:52:19.379Z,89.68
2023-01-09T00:54:46.404Z,89.63
2023-01-09T00:57:14.155Z,88.91
2023-01-09T00:59:42.029Z,88.89
2023-01-09T01:02:09.006Z,89.03
2023-01-09T01:05:07.993Z,88.38
2023-01-09T01:07:41.519Z,88.59
2023-01-09T01:10:12.022Z,88.48
2023-01-09T01:12:40.230Z,88.71
2023-01-09T01:15:07.739Z,88.32
2023-01-09T01:17:36.636Z,88.27
2023-01-09T01:20:05.627Z,87.95
2023-01-09T01:22:32.310Z,87.47
2023-01-09T01:24:58.868Z,87.41
2023-01-09T01:27:25.591Z,87.55
2023-01-09T01:29:52.551Z,87.51
2023-01-09T01:32:19.267Z,87.88
2023-01-09T01:34:47.582Z,87.79
2023-01-09T01:37:14.308Z,87.53
2023-01-09T01:39:41.320Z,87.67
2023-01-09T01:42:07.890Z,87.30
2023-01-09T01:45:06.355Z,87.41
2023-01-09T01:47:52.766Z,87.34
2023-01-09T01:50:28.993Z,87.13
2023-01-09T01:53:07.618Z,86.91
2023-01-09T01:55:36.347Z,86.53
2023-01-09T01:58:05.632Z,86.88
2023-01-09T02:00:36.971Z,86.82
2023-01-09T02:03:06.148Z,86.70
2023-01-09T02:05:33.302Z,86.91
2023-01-09T02:08:00.135Z,86.74
2023-01-09T02:10:26.852Z,86.61
2023-01-09T02:12:53.537Z,86.51
2023-01-09T02:15:20.827Z,86.39
2023-01-09T02:18:05.760Z,86.05
2023-01-09T02:21:09.547Z,85.98
2023-01-09T02:23:42.638Z,85.42
2023-01-09T02:26:34.086Z,85.72
2023-01-09T02:29:03.561Z,86.14
2023-01-09T02:31:39.086Z,85.77
2023-01-09T02:34:35.034Z,86.00
2023-01-09T02:37:37.263Z,85.67
2023-01-09T02:40:27.268Z,85.45
2023-01-09T02:42:55.657Z,86.02
2023-01-09T02:45:22.228Z,86.16
2023-01-09T02:47:48.841Z,85.92
2023-01-09T02:50:30.965Z,86.17
2023-01-09T02:53:17.826Z,85.88
2023-01-09T02:55:53.438Z,86.04
2023-01-09T02:59:04.405Z,85.77
2023-01-09T03:02:17.391Z,85.54
2023-01-09T03:04:59.937Z,85.21
2023-01-09T03:07:32.630Z,85.48
2023-01-09T03:10:08.447Z,85.49
2023-01-09T03:12:37.699Z,85.52
2023-01-09T03:15:06.725Z,85.22
2023-01-09T03:17:40.433Z,85.16
2023-01-09T03:20:10.397Z,84.99
2023-01-09T03:22:38.822Z,85.16
2023-01-09T03:25:06.077Z,85.15
2023-01-09T03:27:32.758Z,85.11
2023-01-09T03:29:59.709Z,84.69
2023-01-09T03:32:27.835Z,85.47
2023-01-09T03:34:54.389Z,85.08
2023-01-09T03:37:20.998Z,84.77
2023-01-09T03:39:47.446Z,84.78
2023-01-09T03:42:13.917Z,84.93
2023-01-09T03:44:40.712Z,85.05
2023-01-09T03:47:07.282Z,85.10
2023-01-09T03:49:33.780Z,84.91
2023-01-09T03:52:00.252Z,84.78
2023-01-09T03:54:26.784Z,84.85
2023-01-09T03:56:53.319Z,85.08
2023-01-09T03:59:19.855Z,84.94
2023-01-09T04:01:46.421Z,84.52
2023-01-09T04:04:12.997Z,85.19
2023-01-09T04:06:39.984Z,84.93
2023-01-09T04:09:06.500Z,84.82
2023-01-09T04:11:33.006Z,84.52
2023-01-09T04:14:01.882Z,84.60
2023-01-09T04:16:28.756Z,84.52
2023-01-09T04:18:55.314Z,84.33
2023-01-09T04:21:21.935Z,84.38
2023-01-09T04:23:48.481Z,84.18
2023-01-09T04:26:15.027Z,84.00
2023-01-09T04:28:41.587Z,84.04
2023-01-09T04:31:08.512Z,84.13
2023-01-09T04:33:35.033Z,83.73
2023-01-09T04:36:01.644Z,83.88
2023-01-09T04:38:28.325Z,83.44
2023-01-09T04:40:54.884Z,83.68
2023-01-09T04:43:21.551Z,83.31
2023-01-09T04:45:48.105Z,83.31
2023-01-09T04:48:14.832Z,83.82
2023-01-09T04:50:41.396Z,83.72
2023-01-09T04:53:08.026Z,83.48
2023-01-09T04:55:34.642Z,83.26
2023-01-09T04:58:01.151Z,83.18
2023-01-09T05:00:27.732Z,83.36
2023-01-09T05:02:54.261Z,83.04
2023-01-09T05:05:20.901Z,83.36
2023-01-09T05:07:47.380Z,83.31
2023-01-09T05:10:13.957Z,83.53
2023-01-09T05:12:40.533Z,82.92
2023-01-09T05:15:08.865Z,82.80
2023-01-09T05:17:35.832Z,82.44
2023-01-09T05:20:02.382Z,82.47
2023-01-09T05:22:29.017Z,82.72
2023-01-09T05:24:55.968Z,82.05
2023-01-09T05:27:22.525Z,81.60
2023-01-09T05:29:49.086Z,81.73
2023-01-09T05:32:15.587Z,81.21
2023-01-09T05:34:42.081Z,80.77
2023-01-09T05:37:11.113Z,81.22
2023-01-09T05:39:37.628Z,80.99
2023-01-09T05:42:04.208Z,81.11
2023-01-09T05:44:30.713Z,81.33
2023-01-09T05:46:57.184Z,81.04
2023-01-09T05:49:23.826Z,82.51
2023-01-09T05:51:50.298Z,81.34
2023-01-09T05:54:16.784Z,80.74
2023-01-09T05:56:43.262Z,80.76
2023-01-09T05:59:09.800Z,81.68
2023-01-09T06:01:36.408Z,81.28
2023-01-09T06:04:02.993Z,81.65
2023-01-09T06:06:29.536Z,81.43
2023-01-09T06:08:56.034Z,81.32
2023-01-09T06:11:22.562Z,81.39
2023-01-09T06:13:49.115Z,81.95
2023-01-09T06:16:15.718Z,81.82
2023-01-09T06:18:42.295Z,82.33
2023-01-09T06:21:08.868Z,81.63
2023-01-09T06:23:35.353Z,81.55
2023-01-09T06:26:01.932Z,81.64
2023-01-09T06:28:28.848Z,81.80
2023-01-09T06:30:57.997Z,81.63
2023-01-09T06:33:24.575Z,81.92
2023-01-09T06:35:51.097Z,81.51
2023-01-09T06:38:17.597Z,81.21
2023-01-09T06:40:44.157Z,81.31
2023-01-09T06:43:10.769Z,80.72
2023-01-09T06:45:37.305Z,81.15
2023-01-09T06:48:03.924Z,80.39
2023-01-09T06:50:32.777Z,81.06
2023-01-09T06:52:59.274Z,81.43
2023-01-09T06:55:26.502Z,80.32
2023-01-09T06:57:55.758Z,81.12
2023-01-09T07:00:22.367Z,81.20
2023-01-09T07:02:48.951Z,80.22
2023-01-09T07:05:15.463Z,80.20
2023-01-09T07:07:41.960Z,80.36
2023-01-09T07:10:09.699Z,81.24
2023-01-09T07:12:36.282Z,80.32
2023-01-09T07:15:03.050Z,80.63
2023-01-09T07:17:29.549Z,79.75
2023-01-09T07:19:56.030Z,79.89
2023-01-09T07:22:22.517Z,80.09
2023-01-09T07:24:49.140Z,79.58
2023-01-09T07:27:15.930Z,80.23
2023-01-09T07:29:42.476Z,80.03
2023-01-09T07:32:09.052Z,80.12
2023-01-09T07:34:35.889Z,80.19
2023-01-09T07:37:02.460Z,80.35
2023-01-09T07:39:28.993Z,80.62
2023-01-09T07:41:55.473Z,80.33
2023-01-09T07:44:22.002Z,81.27
2023-01-09T07:46:48.502Z,81.71
2023-01-09T07:49:15.018Z,82.70
2023-01-09T07:51:43.348Z,83.24
2023-01-09T07:54:11.416Z,83.23
2023-01-09T07:56:38.378Z,84.04
2023-01-09T07:59:04.922Z,84.18
2023-01-09T08:01:32.017Z,84.26
2023-01-09T08:03:59.171Z,84.35
2023-01-09T08:06:25.658Z,84.55
2023-01-09T08:08:52.181Z,84.36
2023-01-09T08:11:18.687Z,84.48
2023-01-09T08:13:45.235Z,83.82
2023-01-09T08:16:11.789Z,84.38
2023-01-09T08:18:38.306Z,83.74
2023-01-09T08:21:04.920Z,83.69
2023-01-09T08:23:31.456Z,83.16
2023-01-09T08:25:58.030Z,83.43
2023-01-09T08:28:24.588Z,83.53
2023-01-09T08:30:51.279Z,83.65
2023-01-09T08:33:17.801Z,83.75
2023-01-09T08:35:45.015Z,83.57
2023-01-09T08:38:11.639Z,83.71
2023-01-09T08:40:38.608Z,83.27
2023-01-09T08:43:23.670Z,83.53
2023-01-09T08:46:09.242Z,83.86
2023-01-09T08:48:35.804Z,83.70
2023-01-09T08:51:02.499Z,85.05
2023-01-09T08:53:29.747Z,84.75
2023-01-09T08:55:56.220Z,85.12
2023-01-09T08:58:22.777Z,84.82
2023-01-09T09:00:49.317Z,83.97
2023-01-09T09:03:17.401Z,84.58
2023-01-09T09:05:46.057Z,84.21
2023-01-09T09:08:13.292Z,84.19
2023-01-09T09:10:39.792Z,84.85
2023-01-09T09:13:06.330Z,84.56
2023-01-09T09:15:34.378Z,84.64
2023-01-09T09:18:03.411Z,85.00
2023-01-09T09:20:32.594Z,84.20
2023-01-09T09:22:59.211Z,84.47
2023-01-09T09:25:26.625Z,84.23
2023-01-09T09:27:54.202Z,83.79
2023-01-09T09:30:20.779Z,83.27
2023-01-09T09:32:47.366Z,82.80
2023-01-09T09:35:14.217Z,82.29
2023-01-09T09:37:40.873Z,82.21
2023-01-09T09:40:19.774Z,81.98
2023-01-09T09:43:27.930Z,81.50
2023-01-09T09:45:59.608Z,81.99
2023-01-09T09:48:29.215Z,81.64
2023-01-09T09:51:17.912Z,80.50
2023-01-09T09:54:00.033Z,80.57
2023-01-09T09:56:29.135Z,80.59
2023-01-09T09:59:15.012Z,80.44
2023-01-09T10:01:49.408Z,79.99
2023-01-09T10:04:19.574Z,80.72
2023-01-09T10:06:54.740Z,80.83
2023-01-09T10:09:41.436Z,81.03
2023-01-09T10:12:08.243Z,80.79
2023-01-09T10:14:34.814Z,80.16
2023-01-09T10:17:30.749Z,80.49
2023-01-09T10:20:11.822Z,80.35
2023-01-09T10:22:50.353Z,79.61
2023-01-09T10:25:30.582Z,79.31
2023-01-09T10:28:12.250Z,79.44
2023-01-09T10:30:42.738Z,79.50
2023-01-09T10:33:26.304Z,79.43
2023-01-09T10:35:58.814Z,79.65
2023-01-09T10:38:31.923Z,79.92
2023-01-09T10:41:07.622Z,79.27
2023-01-09T10:43:49.283Z,78.96
2023-01-09T10:46:22.677Z,78.80
2023-01-09T10:48:53.241Z,78.30
2023-01-09T10:51:27.768Z,78.94
2023-01-09T10:53:56.042Z,78.54
2023-01-09T10:56:37.381Z,78.10
2023-01-09T10:59:03.884Z,78.08
2023-01-09T11:01:33.793Z,78.52
2023-01-09T11:04:02.317Z,78.40
2023-01-09T11:06:46.805Z,78.06
2023-01-09T11:09:15.256Z,78.04
2023-01-09T11:11:42.077Z,77.83
2023-01-09T11:14:15.886Z,78.11
2023-01-09T11:16:56.312Z,78.23
2023-01-09T11:19:24.138Z,78.00
2023-01-09T11:21:50.781Z,78.17
2023-01-09T11:24:23.896Z,78.62
2023-01-09T11:26:53.785Z,78.53
2023-01-09T11:29:24.660Z,78.39
2023-01-09T11:31:56.895Z,78.80
2023-01-09T11:34:26.398Z,78.90
2023-01-09T11:36:54.799Z,79.09
2023-01-09T11:39:26.523Z,79.49
2023-01-09T11:41:55.743Z,79.08
2023-01-09T11:44:22.787Z,78.99
2023-01-09T11:46:49.408Z,78.99
2023-01-09T11:49:23.603Z,78.49
2023-01-09T11:52:19.914Z,79.25
2023-01-09T11:55:09.174Z,80.30
2023-01-09T11:57:35.733Z,80.04
2023-01-09T12:00:14.029Z,80.47
2023-01-09T12:03:04.729Z,80.40
2023-01-09T12:06:08.825Z,81.02
2023-01-09T12:08:50.640Z,80.28
2023-01-09T12:11:22.171Z,80.77
2023-01-09T12:14:00.630Z,80.42
2023-01-09T12:16:59.392Z,81.52
2023-01-09T12:19:48.046Z,82.22
2023-01-09T12:22:43.123Z,82.17
2023-01-09T12:25:29.314Z,82.17
2023-01-09T12:28:10.826Z,82.06
2023-01-09T12:31:05.503Z,82.46
2023-01-09T12:33:35.125Z,81.96
2023-01-09T12:36:20.584Z,82.79
2023-01-09T12:38:57.101Z,83.36
2023-01-09T12:41:42.948Z,83.09
2023-01-09T12:44:36.515Z,83.04
2023-01-09T12:47:40.490Z,83.19
2023-01-09T12:50:07.098Z,82.83
2023-01-09T12:52:44.192Z,82.39
2023-01-09T12:55:23.917Z,81.96
2023-01-09T12:57:56.245Z,81.98
2023-01-09T13:00:27.423Z,81.59
2023-01-09T13:03:12.966Z,81.51
2023-01-09T13:05:44.317Z,81.43
2023-01-09T13:08:39.048Z,81.60
2023-01-09T13:11:20.317Z,81.47
2023-01-09T13:13:54.429Z,81.48
2023-01-09T13:16:27.095Z,81.60
2023-01-09T13:19:03.634Z,81.11
2023-01-09T13:21:30.979Z,81.40
2023-01-09T13:24:19.206Z,81.58
2023-01-09T13:26:51.288Z,81.14
2023-01-09T13:29:40.487Z,80.76
2023-01-09T13:32:51.544Z,80.41
2023-01-09T13:35:18.041Z,80.29
2023-01-09T13:37:51.819Z,80.25
2023-01-09T13:40:21.262Z,80.35
2023-01-09T13:43:09.986Z,80.53
2023-01-09T13:45:39.457Z,80.95
2023-01-09T13:48:10.089Z,80.74
2023-01-09T13:50:40.908Z,80.32
2023-01-09T13:53:19.823Z,80.41
2023-01-09T13:55:58.902Z,79.74
2023-01-09T13:58:54.338Z,80.44
2023-01-09T14:01:39.890Z,79.70
2023-01-09T14:04:14.668Z,79.99
2023-01-09T14:06:41.508Z,79.46
2023-01-09T14:09:21.509Z,79.93
2023-01-09T14:11:48.975Z,79.77
2023-01-09T14:14:33.234Z,79.46
2023-01-09T14:17:03.500Z,78.80
2023-01-09T14:19:37.388Z,78.62
2023-01-09T14:22:05.710Z,79.03
2023-01-09T14:24:47.131Z,79.29
2023-01-09T14:28:03.517Z,78.74
2023-01-09T14:30:38.733Z,79.20
2023-01-09T14:33:26.721Z,78.72
2023-01-09T14:36:08.423Z,78.72
2023-01-09T14:38:41.038Z,78.97
2023-01-09T14:41:44.356Z,78.98
2023-01-09T14:44:27.505Z,79.13
2023-01-09T14:46:56.481Z,78.84
2023-01-09T14:49:40.767Z,78.85
2023-01-09T14:52:29.524Z,79.16
2023-01-09T14:55:01.142Z,78.66
2023-01-09T14:57:31.609Z,79.06
2023-01-09T15:00:14.499Z,78.70
2023-01-09T15:02:42.550Z,78.96
2023-01-09T15:05:13.506Z,78.86
2023-01-09T15:07:53.587Z,78.92
2023-01-09T15:10:21.937Z,79.37
2023-01-09T15:12:51.619Z,79.37
2023-01-09T15:15:20.738Z,79.20
2023-01-09T15:17:55.205Z,79.32
2023-01-09T15:20:29.980Z,79.22
2023-01-09T15:22:57.696Z,79.02
2023-01-09T15:25:41.012Z,78.99
2023-01-09T15:28:32.439Z,78.93
2023-01-09T15:31:15.617Z,79.09
2023-01-09T15:33:45.212Z,79.47
2023-01-09T15:36:24.915Z,79.34
2023-01-09T15:38:52.968Z,79.84
2023-01-09T15:41:44.218Z,80.38
2023-01-09T15:44:26.058Z,82.23
2023-01-09T15:46:57.820Z,82.70
2023-01-09T15:49:25.114Z,82.97
2023-01-09T15:51:52.082Z,83.36
2023-01-09T15:54:28.762Z,83.21
2023-01-09T15:56:55.326Z,83.28
2023-01-09T15:59:23.435Z,83.92
2023-01-09T16:02:17.842Z,83.98
2023-01-09T16:04:44.440Z,84.49
2023-01-09T16:07:16.145Z,84.21
2023-01-09T16:09:47.704Z,83.96
2023-01-09T16:12:19.501Z,83.99
2023-01-09T16:14:51.365Z,84.57
2023-01-09T16:17:20.265Z,84.54
2023-01-09T16:19:55.773Z,84.86
2023-01-09T16:22:31.033Z,84.89
2023-01-09T16:25:03.558Z,85.04
2023-01-09T16:27:34.353Z,84.46
2023-01-09T16:30:04.404Z,84.71
2023-01-09T16:32:33.808Z,84.75
2023-01-09T16:35:06.723Z,84.39
2023-01-09T16:37:33.923Z,84.32
2023-01-09T16:40:12.632Z,83.87
2023-01-09T16:42:57.796Z,84.14
2023-01-09T16:45:26.834Z,84.11
2023-01-09T16:47:53.679Z,83.70
2023-01-09T16:50:21.495Z,83.48
2023-01-09T16:52:47.997Z,83.46
2023-01-09T16:55:14.564Z,83.58
2023-01-09T16:57:41.932Z,83.37
2023-01-09T17:00:18.379Z,83.67
2023-01-09T17:02:45.442Z,84.45
2023-01-09T17:05:12.214Z,84.76
2023-01-09T17:07:38.925Z,85.53
2023-01-09T17:10:06.387Z,85.89
2023-01-09T17:12:32.869Z,85.93
2023-01-09T17:15:01.426Z,86.18
2023-01-09T17:17:27.940Z,84.66
2023-01-09T17:19:54.433Z,85.50
2023-01-09T17:22:20.968Z,85.77
2023-01-09T17:25:08.715Z,85.82
2023-01-09T17:27:56.659Z,86.35
2023-01-09T17:30:23.156Z,86.21
2023-01-09T17:32:52.000Z,86.46
2023-01-09T17:35:18.573Z,85.67
2023-01-09T17:37:45.076Z,85.64
2023-01-09T17:40:23.176Z,85.50
2023-01-09T17:42:49.689Z,85.65
2023-01-09T17:45:16.235Z,85.65
2023-01-09T17:47:42.899Z,85.77
2023-01-09T17:50:31.163Z,85.79
2023-01-09T17:52:57.662Z,85.69
2023-01-09T17:55:26.787Z,86.04
2023-01-09T17:57:53.488Z,86.08
2023-01-09T18:00:27.536Z,85.98
2023-01-09T18:02:55.474Z,86.48
2023-01-09T18:05:24.297Z,86.21
2023-01-09T18:07:51.255Z,86.38
2023-01-09T18:10:20.603Z,87.03
2023-01-09T18:12:50.154Z,86.59
2023-01-09T18:15:16.904Z,87.01
2023-01-09T18:17:43.710Z,87.25
2023-01-09T18:20:10.797Z,87.12
2023-01-09T18:22:37.804Z,87.66
2023-01-09T18:25:04.943Z,87.54
2023-01-09T18:27:31.687Z,88.22
2023-01-09T18:30:01.702Z,88.30
2023-01-09T18:32:32.169Z,88.42
2023-01-09T18:34:58.723Z,88.49
2023-01-09T18:37:25.239Z,88.43
2023-01-09T18:39:51.759Z,88.57
2023-01-09T18:42:18.334Z,88.60
2023-01-09T18:44:44.814Z,88.50
2023-01-09T18:47:11.563Z,88.87
2023-01-09T18:49:38.410Z,89.05
2023-01-09T18:52:07.475Z,88.97
2023-01-09T18:54:38.228Z,88.97
2023-01-09T18:57:04.969Z,88.33
2023-01-09T18:59:33.951Z,88.62
2023-01-09T19:02:02.202Z,88.31
2023-01-09T19:04:29.078Z,88.06
2023-01-09T19:06:57.190Z,88.11
2023-01-09T19:09:23.913Z,88.17
2023-01-09T19:11:50.447Z,87.78
2023-01-09T19:14:17.148Z,87.76
2023-01-09T19:16:43.790Z,87.65
2023-01-09T19:19:10.707Z,87.74
2023-01-09T19:21:37.372Z,87.54
2023-01-09T19:24:04.153Z,87.63
2023-01-09T19:26:31.202Z,87.88
2023-01-09T19:29:09.410Z,87.48
2023-01-09T19:31:36.349Z,87.58
2023-01-09T19:34:02.982Z,87.62
2023-01-09T19:36:29.618Z,87.11
2023-01-09T19:39:00.988Z,87.69
2023-01-09T19:41:28.682Z,87.44
2023-01-09T19:43:55.279Z,87.91
2023-01-09T19:46:24.340Z,87.90
2023-01-09T19:48:54.473Z,87.68
2023-01-09T19:51:22.244Z,87.64
2023-01-09T19:54:03.443Z,88.14
2023-01-09T19:56:32.156Z,88.30
2023-01-09T19:59:00.999Z,88.40
2023-01-09T20:01:33.375Z,88.14
2023-01-09T20:04:07.549Z,88.00
2023-01-09T20:06:35.572Z,88.13
2023-01-09T20:09:04.404Z,87.91
2023-01-09T20:11:32.432Z,88.09
2023-01-09T20:13:59.080Z,87.92
2023-01-09T20:16:28.635Z,88.29
2023-01-09T20:18:58.719Z,88.08
2023-01-09T20:21:28.573Z,87.96
2023-01-09T20:23:58.738Z,88.05
2023-01-09T20:26:26.554Z,87.61
2023-01-09T20:28:53.751Z,87.95
2023-01-09T20:31:22.089Z,87.52
2023-01-09T20:33:49.401Z,87.95
2023-01-09T20:36:15.998Z,87.78
2023-01-09T20:38:44.871Z,88.21
2023-01-09T20:41:22.611Z,88.41
2023-01-09T20:43:55.664Z,88.23
2023-01-09T20:46:24.286Z,88.32
2023-01-09T20:48:50.875Z,88.48
2023-01-09T20:51:18.019Z,88.45
2023-01-09T20:53:46.003Z,88.48
2023-01-09T20:56:13.020Z,88.48
2023-01-09T20:58:42.256Z,88.48
2023-01-09T21:01:11.731Z,88.38
2023-01-09T21:03:38.854Z,88.02
2023-01-09T21:06:07.720Z,88.24
2023-01-09T21:08:34.892Z,87.98
2023-01-09T21:11:02.466Z,87.84
2023-01-09T21:13:29.503Z,87.81
2023-01-09T21:16:24.538Z,87.88
2023-01-09T21:19:00.041Z,87.91
2023-01-09T21:21:29.452Z,87.82
2023-01-09T21:23:58.324Z,87.11
2023-01-09T21:26:37.188Z,87.20
2023-01-09T21:29:08.349Z,87.02
2023-01-09T21:31:35.443Z,87.16
2023-01-09T21:34:04.917Z,87.04
2023-01-09T21:36:32.100Z,86.95
2023-01-09T21:38:59.600Z,86.49
2023-01-09T21:41:44.412Z,87.05
2023-01-09T21:44:32.420Z,86.65
2023-01-09T21:47:00.330Z,86.43
2023-01-09T21:49:29.676Z,86.50
2023-01-09T21:51:56.224Z,86.72
2023-01-09T21:54:24.334Z,86.58
2023-01-09T21:56:51.918Z,86.22
2023-01-09T21:59:19.408Z,86.00
2023-01-09T22:01:46.275Z,85.98
2023-01-09T22:04:15.174Z,86.14
2023-01-09T22:06:42.403Z,85.75
2023-01-09T22:09:10.184Z,85.82
2023-01-09T22:11:40.006Z,85.73
2023-01-09T22:14:06.975Z,85.78
2023-01-09T22:16:33.876Z,85.51
2023-01-09T22:19:00.702Z,85.38
2023-01-09T22:21:29.850Z,85.41
2023-01-09T22:23:56.606Z,85.56
2023-01-09T22:26:23.712Z,85.63
2023-01-09T22:28:50.985Z,85.54
2023-01-09T22:31:20.258Z,85.70
2023-01-09T22:33:55.117Z,85.45
2023-01-09T22:36:21.633Z,85.55
2023-01-09T22:38:48.178Z,85.25
2023-01-09T22:41:15.172Z,85.49
2023-01-09T22:43:44.012Z,85.28
2023-01-09T22:46:11.865Z,85.79
2023-01-09T22:48:39.408Z,85.54
2023-01-09T22:51:12.312Z,85.58
2023-01-09T22:53:39.580Z,85.67
2023-01-09T22:56:08.481Z,85.94
2023-01-09T22:58:35.011Z,85.98
2023-01-09T23:01:02.993Z,86.07
2023-01-09T23:03:29.643Z,85.92
2023-01-09T23:06:04.671Z,86.15
2023-01-09T23:08:32.276Z,85.97
2023-01-09T23:10:59.370Z,86.62
2023-01-09T23:13:26.165Z,86.45
2023-01-09T23:16:01.744Z,86.67
2023-01-09T23:18:30.940Z,86.49
2023-01-09T23:21:00.580Z,86.13
2023-01-09T23:23:29.655Z,86.33
2023-01-09T23:26:02.447Z,86.62
2023-01-09T23:28:30.607Z,86.65
2023-01-09T23:30:57.298Z,86.85
2023-01-09T23:33:23.929Z,86.69
2023-01-09T23:35:50.519Z,86.51
2023-01-09T23:38:17.047Z,86.65
2023-01-09T23:40:46.337Z,86.85
2023-01-09T23:43:16.948Z,86.69
2023-01-09T23:45:45.134Z,86.77
2023-01-09T23:48:16.764Z,86.57
2023-01-09T23:50:48.286Z,86.48
2023-01-09T23:53:15.044Z,86.14
2023-01-09T23:55:41.684Z,86.60
2023-01-09T23:58:08.457Z,86.31
